sensor_id;sensor_type;location;lat;lon;timestamp;P1;durP1;ratioP1;P2;durP2;ratioP2
19032;SDS011;9649;51.042;13.804;2023-02-11T00:03:37;43.50;;;19.97;;
19032;SDS011;9649;51.042;13.804;2023-02-11T00:08:40;44.07;;;18.53;;
19032;SDS011;9649;51.042;13.804;2023-02-11T00:13:45;39.77;;;19.13;;
19032;SDS011;9649;51.042;13.804;2023-02-11T00:18:48;44.67;;;18.63;;
19032;SDS011;9649;51.042;13.804;2023-02-11T00:23:53;46.70;;;20.03;;
19032;SDS011;9649;51.042;13.804;2023-02-11T00:28:58;45.67;;;19.57;;
19032;SDS011;9649;51.042;13.804;2023-02-11T00:34:02;38.90;;;17.90;;
19032;SDS011;9649;51.042;13.804;2023-02-11T00:39:05;38.73;;;17.33;;
19032;SDS011;9649;51.042;13.804;2023-02-11T00:44:09;42.97;;;17.60;;
19032;SDS011;9649;51.042;13.804;2023-02-11T00:49:12;39.80;;;17.80;;
19032;SDS011;9649;51.042;13.804;2023-02-11T00:54:14;37.83;;;17.97;;
19032;SDS011;9649;51.042;13.804;2023-02-11T00:59:18;41.17;;;17.53;;
19032;SDS011;9649;51.042;13.804;2023-02-11T01:04:21;37.67;;;17.90;;
19032;SDS011;9649;51.042;13.804;2023-02-11T01:09:24;38.37;;;17.13;;
19032;SDS011;9649;51.042;13.804;2023-02-11T01:14:28;37.80;;;17.83;;
19032;SDS011;9649;51.042;13.804;2023-02-11T01:19:31;38.07;;;17.80;;
19032;SDS011;9649;51.042;13.804;2023-02-11T01:24:33;40.20;;;17.57;;
19032;SDS011;9649;51.042;13.804;2023-02-11T01:29:37;37.43;;;17.00;;
19032;SDS011;9649;51.042;13.804;2023-02-11T01:34:40;35.70;;;17.27;;
19032;SDS011;9649;51.042;13.804;2023-02-11T01:39:43;34.90;;;17.40;;
19032;SDS011;9649;51.042;13.804;2023-02-11T01:44:48;32.50;;;16.60;;
19032;SDS011;9649;51.042;13.804;2023-02-11T01:49:54;37.30;;;16.53;;
19032;SDS011;9649;51.042;13.804;2023-02-11T01:55:00;40.53;;;17.10;;
19032;SDS011;9649;51.042;13.804;2023-02-11T02:00:26;33.13;;;15.67;;
19032;SDS011;9649;51.042;13.804;2023-02-11T02:05:36;32.77;;;16.70;;
19032;SDS011;9649;51.042;13.804;2023-02-11T02:10:43;36.63;;;16.53;;
19032;SDS011;9649;51.042;13.804;2023-02-11T02:15:49;28.87;;;15.67;;
19032;SDS011;9649;51.042;13.804;2023-02-11T02:21:03;34.70;;;17.23;;
19032;SDS011;9649;51.042;13.804;2023-02-11T02:26:46;32.67;;;16.10;;
19032;SDS011;9649;51.042;13.804;2023-02-11T02:37:37;34.37;;;17.07;;
19032;SDS011;9649;51.042;13.804;2023-02-11T02:42:43;33.50;;;17.50;;
19032;SDS011;9649;51.042;13.804;2023-02-11T02:47:48;33.13;;;16.70;;
19032;SDS011;9649;51.042;13.804;2023-02-11T02:52:53;32.87;;;17.87;;
19032;SDS011;9649;51.042;13.804;2023-02-11T02:58:11;34.63;;;17.27;;
19032;SDS011;9649;51.042;13.804;2023-02-11T03:03:29;32.47;;;16.10;;
19032;SDS011;9649;51.042;13.804;2023-02-11T03:08:41;33.63;;;17.33;;
19032;SDS011;9649;51.042;13.804;2023-02-11T03:13:48;33.17;;;16.50;;
19032;SDS011;9649;51.042;13.804;2023-02-11T03:18:54;37.40;;;17.87;;
19032;SDS011;9649;51.042;13.804;2023-02-11T03:24:04;29.80;;;15.23;;
19032;SDS011;9649;51.042;13.804;2023-02-11T03:29:12;29.67;;;15.50;;
19032;SDS011;9649;51.042;13.804;2023-02-11T03:34:22;30.73;;;16.00;;
19032;SDS011;9649;51.042;13.804;2023-02-11T03:39:32;30.93;;;15.63;;
19032;SDS011;9649;51.042;13.804;2023-02-11T03:44:40;33.73;;;16.53;;
19032;SDS011;9649;51.042;13.804;2023-02-11T03:49:49;32.07;;;17.07;;
19032;SDS011;9649;51.042;13.804;2023-02-11T03:54:54;34.13;;;17.60;;
19032;SDS011;9649;51.042;13.804;2023-02-11T03:59:59;33.10;;;17.23;;
19032;SDS011;9649;51.042;13.804;2023-02-11T04:05:04;33.53;;;17.23;;
19032;SDS011;9649;51.042;13.804;2023-02-11T04:10:10;32.90;;;17.13;;
19032;SDS011;9649;51.042;13.804;2023-02-11T04:15:12;33.17;;;17.80;;
19032;SDS011;9649;51.042;13.804;2023-02-11T04:20:17;34.27;;;18.07;;
19032;SDS011;9649;51.042;13.804;2023-02-11T04:25:20;33.37;;;17.83;;
19032;SDS011;9649;51.042;13.804;2023-02-11T04:30:22;32.07;;;16.13;;
19032;SDS011;9649;51.042;13.804;2023-02-11T04:35:26;36.20;;;17.37;;
19032;SDS011;9649;51.042;13.804;2023-02-11T04:40:29;35.37;;;17.43;;
19032;SDS011;9649;51.042;13.804;2023-02-11T04:45:32;33.43;;;17.00;;
19032;SDS011;9649;51.042;13.804;2023-02-11T04:50:36;37.67;;;17.87;;
19032;SDS011;9649;51.042;13.804;2023-02-11T04:55:39;30.53;;;17.63;;
19032;SDS011;9649;51.042;13.804;2023-02-11T05:00:41;33.83;;;17.03;;
19032;SDS011;9649;51.042;13.804;2023-02-11T05:05:45;33.37;;;16.77;;
19032;SDS011;9649;51.042;13.804;2023-02-11T05:10:49;32.20;;;16.90;;
19032;SDS011;9649;51.042;13.804;2023-02-11T05:15:51;33.90;;;18.00;;
19032;SDS011;9649;51.042;13.804;2023-02-11T05:20:56;40.57;;;19.23;;
19032;SDS011;9649;51.042;13.804;2023-02-11T05:25:58;35.13;;;18.10;;
19032;SDS011;9649;51.042;13.804;2023-02-11T05:31:02;36.80;;;19.20;;
19032;SDS011;9649;51.042;13.804;2023-02-11T05:36:08;38.90;;;18.93;;
19032;SDS011;9649;51.042;13.804;2023-02-11T05:41:12;37.50;;;18.67;;
19032;SDS011;9649;51.042;13.804;2023-02-11T05:46:15;43.30;;;19.47;;
19032;SDS011;9649;51.042;13.804;2023-02-11T05:51:19;40.60;;;20.13;;
19032;SDS011;9649;51.042;13.804;2023-02-11T05:56:22;40.17;;;20.73;;
19032;SDS011;9649;51.042;13.804;2023-02-11T06:01:25;46.77;;;19.63;;
19032;SDS011;9649;51.042;13.804;2023-02-11T06:06:29;37.63;;;20.30;;
19032;SDS011;9649;51.042;13.804;2023-02-11T06:11:32;39.33;;;18.90;;
19032;SDS011;9649;51.042;13.804;2023-02-11T06:16:35;41.40;;;20.77;;
19032;SDS011;9649;51.042;13.804;2023-02-11T06:21:39;41.37;;;20.27;;
19032;SDS011;9649;51.042;13.804;2023-02-11T06:26:44;44.13;;;19.63;;
19032;SDS011;9649;51.042;13.804;2023-02-11T06:31:47;40.67;;;20.17;;
19032;SDS011;9649;51.042;13.804;2023-02-11T06:36:51;44.80;;;19.70;;
19032;SDS011;9649;51.042;13.804;2023-02-11T06:41:54;41.23;;;19.37;;
19032;SDS011;9649;51.042;13.804;2023-02-11T06:46:56;44.43;;;19.97;;
19032;SDS011;9649;51.042;13.804;2023-02-11T06:52:00;43.47;;;19.73;;
19032;SDS011;9649;51.042;13.804;2023-02-11T06:57:03;41.03;;;19.27;;
19032;SDS011;9649;51.042;13.804;2023-02-11T07:02:07;38.70;;;19.10;;
19032;SDS011;9649;51.042;13.804;2023-02-11T07:07:12;38.17;;;19.97;;
19032;SDS011;9649;51.042;13.804;2023-02-11T07:12:14;44.57;;;19.60;;
19032;SDS011;9649;51.042;13.804;2023-02-11T07:17:20;45.27;;;20.33;;
19032;SDS011;9649;51.042;13.804;2023-02-11T07:22:24;42.37;;;20.40;;
19032;SDS011;9649;51.042;13.804;2023-02-11T07:27:27;43.67;;;20.27;;
19032;SDS011;9649;51.042;13.804;2023-02-11T07:32:29;42.07;;;20.23;;
19032;SDS011;9649;51.042;13.804;2023-02-11T07:37:33;49.77;;;20.70;;
19032;SDS011;9649;51.042;13.804;2023-02-11T07:42:36;40.70;;;20.20;;
19032;SDS011;9649;51.042;13.804;2023-02-11T07:47:40;39.00;;;19.73;;
19032;SDS011;9649;51.042;13.804;2023-02-11T07:52:45;38.23;;;19.60;;
19032;SDS011;9649;51.042;13.804;2023-02-11T07:57:50;40.67;;;19.67;;
19032;SDS011;9649;51.042;13.804;2023-02-11T08:02:52;39.63;;;19.53;;
19032;SDS011;9649;51.042;13.804;2023-02-11T08:07:56;38.90;;;19.93;;
19032;SDS011;9649;51.042;13.804;2023-02-11T08:12:59;40.77;;;19.60;;
19032;SDS011;9649;51.042;13.804;2023-02-11T08:18:02;39.60;;;19.93;;
19032;SDS011;9649;51.042;13.804;2023-02-11T08:23:06;41.90;;;20.40;;
19032;SDS011;9649;51.042;13.804;2023-02-11T08:28:09;41.97;;;19.17;;
19032;SDS011;9649;51.042;13.804;2023-02-11T08:33:12;43.43;;;20.33;;
19032;SDS011;9649;51.042;13.804;2023-02-11T08:38:16;41.90;;;20.20;;
19032;SDS011;9649;51.042;13.804;2023-02-11T08:43:18;35.40;;;17.13;;
19032;SDS011;9649;51.042;13.804;2023-02-11T08:48:22;40.80;;;19.03;;
19032;SDS011;9649;51.042;13.804;2023-02-11T08:53:30;41.50;;;19.43;;
19032;SDS011;9649;51.042;13.804;2023-02-11T08:58:36;43.57;;;20.27;;
19032;SDS011;9649;51.042;13.804;2023-02-11T09:03:42;46.57;;;21.23;;
19032;SDS011;9649;51.042;13.804;2023-02-11T09:08:48;35.90;;;18.77;;
19032;SDS011;9649;51.042;13.804;2023-02-11T09:13:56;39.03;;;18.80;;
19032;SDS011;9649;51.042;13.804;2023-02-11T09:19:02;34.50;;;17.70;;
19032;SDS011;9649;51.042;13.804;2023-02-11T09:24:09;38.30;;;19.00;;
19032;SDS011;9649;51.042;13.804;2023-02-11T09:29:15;39.17;;;19.03;;
19032;SDS011;9649;51.042;13.804;2023-02-11T09:34:22;35.50;;;17.83;;
19032;SDS011;9649;51.042;13.804;2023-02-11T09:39:29;41.07;;;18.90;;
19032;SDS011;9649;51.042;13.804;2023-02-11T09:44:35;36.57;;;17.77;;
19032;SDS011;9649;51.042;13.804;2023-02-11T09:49:44;39.40;;;19.80;;
19032;SDS011;9649;51.042;13.804;2023-02-11T09:54:54;37.10;;;18.83;;
19032;SDS011;9649;51.042;13.804;2023-02-11T10:00:06;40.17;;;19.07;;
19032;SDS011;9649;51.042;13.804;2023-02-11T10:05:27;41.30;;;19.07;;
19032;SDS011;9649;51.042;13.804;2023-02-11T10:10:49;39.07;;;19.70;;
19032;SDS011;9649;51.042;13.804;2023-02-11T10:15:58;39.23;;;18.60;;
19032;SDS011;9649;51.042;13.804;2023-02-11T10:21:16;39.70;;;20.13;;
19032;SDS011;9649;51.042;13.804;2023-02-11T10:26:30;39.17;;;20.23;;
19032;SDS011;9649;51.042;13.804;2023-02-11T10:31:36;38.37;;;19.37;;
19032;SDS011;9649;51.042;13.804;2023-02-11T10:36:44;36.40;;;19.13;;
19032;SDS011;9649;51.042;13.804;2023-02-11T10:41:53;36.03;;;18.67;;
19032;SDS011;9649;51.042;13.804;2023-02-11T10:47:03;38.87;;;19.60;;
19032;SDS011;9649;51.042;13.804;2023-02-11T10:52:19;38.33;;;18.37;;
19032;SDS011;9649;51.042;13.804;2023-02-11T10:57:30;36.20;;;18.60;;
19032;SDS011;9649;51.042;13.804;2023-02-11T11:02:38;42.93;;;19.67;;
19032;SDS011;9649;51.042;13.804;2023-02-11T11:07:50;36.50;;;18.83;;
19032;SDS011;9649;51.042;13.804;2023-02-11T11:13:00;34.97;;;18.57;;
19032;SDS011;9649;51.042;13.804;2023-02-11T11:18:11;34.37;;;19.40;;
19032;SDS011;9649;51.042;13.804;2023-02-11T11:23:23;34.67;;;18.10;;
19032;SDS011;9649;51.042;13.804;2023-02-11T11:28:30;35.00;;;19.03;;
19032;SDS011;9649;51.042;13.804;2023-02-11T11:33:40;34.10;;;17.53;;
19032;SDS011;9649;51.042;13.804;2023-02-11T11:38:47;34.43;;;17.60;;
19032;SDS011;9649;51.042;13.804;2023-02-11T11:43:58;34.57;;;18.70;;
19032;SDS011;9649;51.042;13.804;2023-02-11T11:49:08;32.40;;;17.70;;
19032;SDS011;9649;51.042;13.804;2023-02-11T11:54:21;34.30;;;18.40;;
19032;SDS011;9649;51.042;13.804;2023-02-11T11:59:33;32.80;;;17.77;;
19032;SDS011;9649;51.042;13.804;2023-02-11T12:04:47;35.67;;;18.63;;
19032;SDS011;9649;51.042;13.804;2023-02-11T12:10:14;35.37;;;18.23;;
19032;SDS011;9649;51.042;13.804;2023-02-11T12:15:37;31.67;;;18.07;;
19032;SDS011;9649;51.042;13.804;2023-02-11T12:20:54;34.30;;;18.03;;
19032;SDS011;9649;51.042;13.804;2023-02-11T12:26:10;29.50;;;16.63;;
19032;SDS011;9649;51.042;13.804;2023-02-11T12:31:25;34.90;;;17.17;;
19032;SDS011;9649;51.042;13.804;2023-02-11T12:36:41;32.73;;;17.27;;
19032;SDS011;9649;51.042;13.804;2023-02-11T12:42:13;32.50;;;17.10;;
19032;SDS011;9649;51.042;13.804;2023-02-11T12:47:57;32.73;;;17.87;;
19032;SDS011;9649;51.042;13.804;2023-02-11T12:53:20;35.50;;;18.13;;
19032;SDS011;9649;51.042;13.804;2023-02-11T12:58:50;35.27;;;18.37;;
19032;SDS011;9649;51.042;13.804;2023-02-11T13:04:04;37.43;;;18.03;;
19032;SDS011;9649;51.042;13.804;2023-02-11T13:09:13;39.87;;;17.93;;
19032;SDS011;9649;51.042;13.804;2023-02-11T13:14:25;35.50;;;17.87;;
19032;SDS011;9649;51.042;13.804;2023-02-11T13:26:13;30.17;;;16.70;;
19032;SDS011;9649;51.042;13.804;2023-02-11T13:31:54;34.07;;;17.67;;
19032;SDS011;9649;51.042;13.804;2023-02-11T13:36:57;31.87;;;16.53;;
19032;SDS011;9649;51.042;13.804;2023-02-11T13:42:02;33.03;;;17.67;;
19032;SDS011;9649;51.042;13.804;2023-02-11T13:47:05;32.93;;;17.20;;
19032;SDS011;9649;51.042;13.804;2023-02-11T13:52:16;32.57;;;16.53;;
19032;SDS011;9649;51.042;13.804;2023-02-11T13:57:30;30.00;;;15.63;;
19032;SDS011;9649;51.042;13.804;2023-02-11T14:02:37;31.17;;;15.93;;
19032;SDS011;9649;51.042;13.804;2023-02-11T14:14:13;35.63;;;17.13;;
19032;SDS011;9649;51.042;13.804;2023-02-11T14:19:29;32.30;;;17.07;;
19032;SDS011;9649;51.042;13.804;2023-02-11T14:24:46;32.97;;;16.80;;
19032;SDS011;9649;51.042;13.804;2023-02-11T14:30:07;34.53;;;17.13;;
19032;SDS011;9649;51.042;13.804;2023-02-11T14:35:21;35.03;;;17.30;;
19032;SDS011;9649;51.042;13.804;2023-02-11T14:40:30;31.57;;;16.53;;
19032;SDS011;9649;51.042;13.804;2023-02-11T14:45:36;36.80;;;17.43;;
19032;SDS011;9649;51.042;13.804;2023-02-11T14:50:40;28.33;;;15.73;;
19032;SDS011;9649;51.042;13.804;2023-02-11T14:55:47;34.27;;;17.40;;
19032;SDS011;9649;51.042;13.804;2023-02-11T15:00:56;30.60;;;16.27;;
19032;SDS011;9649;51.042;13.804;2023-02-11T15:06:01;31.67;;;17.00;;
19032;SDS011;9649;51.042;13.804;2023-02-11T15:11:07;28.93;;;15.53;;
19032;SDS011;9649;51.042;13.804;2023-02-11T15:16:15;31.63;;;15.93;;
19032;SDS011;9649;51.042;13.804;2023-02-11T15:21:22;31.47;;;16.73;;
19032;SDS011;9649;51.042;13.804;2023-02-11T15:26:26;34.80;;;16.60;;
19032;SDS011;9649;51.042;13.804;2023-02-11T15:31:31;29.13;;;15.20;;
19032;SDS011;9649;51.042;13.804;2023-02-11T15:36:35;33.37;;;16.87;;
19032;SDS011;9649;51.042;13.804;2023-02-11T15:41:39;29.73;;;15.30;;
19032;SDS011;9649;51.042;13.804;2023-02-11T15:46:43;27.80;;;15.23;;
19032;SDS011;9649;51.042;13.804;2023-02-11T15:51:47;35.47;;;15.30;;
19032;SDS011;9649;51.042;13.804;2023-02-11T15:56:51;31.23;;;16.80;;
19032;SDS011;9649;51.042;13.804;2023-02-11T16:01:57;29.70;;;16.10;;
19032;SDS011;9649;51.042;13.804;2023-02-11T16:07:35;31.87;;;15.53;;
19032;SDS011;9649;51.042;13.804;2023-02-11T16:12:48;33.87;;;16.77;;
19032;SDS011;9649;51.042;13.804;2023-02-11T16:17:52;34.03;;;16.87;;
19032;SDS011;9649;51.042;13.804;2023-02-11T16:22:56;32.53;;;17.23;;
19032;SDS011;9649;51.042;13.804;2023-02-11T16:27:59;31.63;;;17.20;;
19032;SDS011;9649;51.042;13.804;2023-02-11T16:33:03;34.27;;;17.47;;
19032;SDS011;9649;51.042;13.804;2023-02-11T16:38:07;34.13;;;18.73;;
19032;SDS011;9649;51.042;13.804;2023-02-11T16:43:09;33.73;;;18.40;;
19032;SDS011;9649;51.042;13.804;2023-02-11T16:48:14;36.43;;;18.83;;
19032;SDS011;9649;51.042;13.804;2023-02-11T16:53:33;37.73;;;18.70;;
19032;SDS011;9649;51.042;13.804;2023-02-11T16:59:50;36.30;;;18.77;;
19032;SDS011;9649;51.042;13.804;2023-02-11T17:29:56;42.67;;;22.17;;
19032;SDS011;9649;51.042;13.804;2023-02-11T17:36:11;44.77;;;22.33;;
19032;SDS011;9649;51.042;13.804;2023-02-11T17:54:31;38.00;;;20.40;;
19032;SDS011;9649;51.042;13.804;2023-02-11T18:43:26;40.53;;;21.43;;
19032;SDS011;9649;51.042;13.804;2023-02-11T18:48:33;45.87;;;23.17;;
19032;SDS011;9649;51.042;13.804;2023-02-11T18:53:38;46.17;;;23.50;;
19032;SDS011;9649;51.042;13.804;2023-02-11T18:58:43;44.27;;;23.23;;
19032;SDS011;9649;51.042;13.804;2023-02-11T19:33:36;40.63;;;20.67;;
19032;SDS011;9649;51.042;13.804;2023-02-11T19:38:43;44.87;;;21.57;;
19032;SDS011;9649;51.042;13.804;2023-02-11T22:11:14;33.10;;;17.77;;
19032;SDS011;9649;51.042;13.804;2023-02-11T22:16:16;36.30;;;19.17;;
19032;SDS011;9649;51.042;13.804;2023-02-11T22:21:21;36.90;;;19.20;;
19032;SDS011;9649;51.042;13.804;2023-02-11T22:26:25;45.90;;;22.60;;
19032;SDS011;9649;51.042;13.804;2023-02-11T22:31:29;42.07;;;21.50;;
19032;SDS011;9649;51.042;13.804;2023-02-11T22:36:34;42.00;;;22.00;;
19032;SDS011;9649;51.042;13.804;2023-02-11T22:41:40;40.13;;;21.07;;
19032;SDS011;9649;51.042;13.804;2023-02-11T22:46:43;43.37;;;22.50;;
19032;SDS011;9649;51.042;13.804;2023-02-11T22:51:46;41.53;;;22.47;;
19032;SDS011;9649;51.042;13.804;2023-02-11T22:56:50;40.23;;;21.47;;
19032;SDS011;9649;51.042;13.804;2023-02-11T23:01:53;38.27;;;21.40;;
19032;SDS011;9649;51.042;13.804;2023-02-11T23:06:56;39.30;;;20.80;;
19032;SDS011;9649;51.042;13.804;2023-02-11T23:12:00;39.83;;;22.23;;
19032;SDS011;9649;51.042;13.804;2023-02-11T23:17:03;44.93;;;22.70;;
19032;SDS011;9649;51.042;13.804;2023-02-11T23:22:05;41.40;;;21.87;;
19032;SDS011;9649;51.042;13.804;2023-02-11T23:27:09;42.63;;;22.17;;
19032;SDS011;9649;51.042;13.804;2023-02-11T23:32:12;39.27;;;21.47;;
19032;SDS011;9649;51.042;13.804;2023-02-11T23:37:15;42.67;;;23.67;;
19032;SDS011;9649;51.042;13.804;2023-02-11T23:42:19;42.83;;;23.57;;
19032;SDS011;9649;51.042;13.804;2023-02-11T23:47:21;42.73;;;23.23;;
19032;SDS011;9649;51.042;13.804;2023-02-11T23:52:24;46.97;;;23.60;;
19032;SDS011;9649;51.042;13.804;2023-02-11T23:57:28;47.27;;;24.67;;
